createdAt,value
2019-05-01T00:02:07.680Z,6.65
2019-05-01T00:07:08.922Z,6.74
2019-05-01T00:12:04.671Z,6.68
2019-05-01T00:17:00.703Z,6.82
2019-05-01T00:21:56.413Z,6.65
2019-05-01T00:26:52.114Z,6.66
2019-05-01T00:31:47.841Z,6.68
2019-05-01T00:36:43.672Z,6.73
2019-05-01T00:41:39.380Z,6.59
2019-05-01T00:46:35.139Z,6.60
2019-05-01T00:51:30.899Z,6.69
2019-05-01T00:56:51.836Z,6.77
2019-05-01T01:02:15.766Z,6.71
2019-05-01T01:07:11.572Z,6.89
2019-05-01T01:12:07.425Z,6.97
2019-05-01T01:17:03.165Z,7.06
2019-05-01T01:21:58.889Z,7.09
2019-05-01T01:26:54.618Z,7.15
2019-05-01T01:31:51.401Z,7.09
2019-05-01T01:36:47.127Z,7.06
2019-05-01T01:41:43.068Z,7.08
2019-05-01T01:46:39.964Z,6.92
2019-05-01T01:51:35.805Z,6.74
2019-05-01T01:56:31.672Z,6.88
2019-05-01T02:01:44.760Z,6.98
2019-05-01T02:06:40.486Z,6.98
2019-05-01T02:11:36.302Z,6.93
2019-05-01T02:16:32.056Z,6.86
2019-05-01T02:21:27.867Z,6.81
2019-05-01T02:26:26.074Z,6.86
2019-05-01T02:31:33.562Z,6.97
2019-05-01T02:36:32.072Z,7.16
2019-05-01T02:41:40.952Z,7.18
2019-05-01T02:46:37.858Z,7.21
2019-05-01T02:51:34.306Z,7.27
2019-05-01T02:56:36.390Z,7.37
2019-05-01T03:01:46.640Z,7.40
2019-05-01T03:06:32.913Z,7.46
2019-05-01T03:11:30.786Z,7.41
2019-05-01T03:16:27.404Z,7.56
2019-05-01T03:21:35.643Z,7.53
2019-05-01T03:26:32.292Z,7.55
2019-05-01T03:31:28.311Z,7.55
2019-05-01T03:36:24.311Z,7.56
2019-05-01T03:41:22.545Z,7.57
2019-05-01T03:46:18.916Z,7.44
2019-05-01T03:51:14.779Z,7.39
2019-05-01T03:56:10.702Z,7.29
2019-05-01T04:01:16.177Z,7.33
2019-05-01T04:06:12.599Z,7.46
2019-05-01T04:11:08.750Z,7.35
2019-05-01T04:16:04.679Z,7.44
2019-05-01T04:21:01.524Z,7.52
2019-05-01T04:25:57.323Z,7.44
2019-05-01T04:31:03.881Z,7.42
2019-05-01T04:36:04.924Z,7.44
2019-05-01T04:41:02.224Z,7.60
2019-05-01T04:45:58.679Z,7.48
2019-05-01T04:50:54.808Z,7.57
2019-05-01T04:55:50.745Z,7.64
2019-05-01T05:00:46.588Z,7.63
2019-05-01T05:05:42.314Z,7.75
2019-05-01T05:10:38.742Z,7.94
2019-05-01T05:15:50.481Z,7.99
2019-05-01T05:20:46.240Z,8.03
2019-05-01T05:25:42.630Z,8.04
2019-05-01T05:30:44.568Z,8.21
2019-05-01T05:35:43.901Z,7.99
2019-05-01T05:40:42.272Z,7.84
2019-05-01T05:45:38.328Z,7.99
2019-05-01T05:50:45.371Z,8.00
2019-05-01T05:55:48.286Z,7.99
2019-05-01T06:01:08.854Z,8.10
2019-05-01T06:06:35.901Z,8.09
2019-05-01T06:11:54.522Z,8.21
2019-05-01T06:17:02.507Z,7.85
2019-05-01T06:22:30.430Z,7.90
2019-05-01T06:27:27.043Z,8.30
2019-05-01T06:32:22.859Z,8.14
2019-05-01T06:37:20.786Z,7.90
2019-05-01T06:42:17.936Z,8.10
2019-05-01T06:47:38.098Z,8.03
2019-05-01T06:52:36.170Z,8.19
2019-05-01T06:57:32.792Z,8.24
2019-05-01T07:02:34.979Z,8.59
2019-05-01T07:07:28.268Z,8.60
2019-05-01T07:12:30.024Z,8.87
2019-05-01T07:17:26.145Z,8.99
2019-05-01T07:22:22.531Z,9.27
2019-05-01T07:27:18.862Z,9.66
2019-05-01T07:32:15.892Z,10.20
2019-05-01T07:37:12.017Z,11.42
2019-05-01T07:42:28.713Z,11.37
2019-05-01T07:47:34.704Z,12.16
2019-05-01T07:52:31.072Z,12.16
2019-05-01T07:57:27.606Z,12.76
2019-05-01T08:02:25.767Z,13.23
2019-05-01T08:07:21.149Z,12.83
2019-05-01T08:12:18.844Z,13.27
2019-05-01T08:17:18.090Z,13.91
2019-05-01T08:22:17.227Z,13.85
2019-05-01T08:27:43.870Z,13.66
2019-05-01T08:46:37.149Z,15.03
2019-05-01T08:51:34.902Z,14.79
2019-05-01T08:56:31.994Z,15.10
2019-05-01T09:01:27.760Z,15.44
2019-05-01T14:25:13.336Z,17.55
2019-05-01T14:30:11.195Z,17.58
2019-05-01T14:35:07.619Z,17.50
2019-05-01T14:41:33.168Z,17.55
2019-05-01T15:03:48.648Z,17.73
2019-05-01T15:08:44.427Z,17.60
2019-05-01T15:13:50.265Z,17.69
2019-05-01T15:19:24.456Z,17.63
2019-05-01T15:24:20.299Z,17.73
2019-05-01T15:29:16.136Z,17.67
2019-05-01T15:34:12.041Z,17.54
2019-05-01T15:39:14.688Z,17.58
2019-05-01T15:44:26.125Z,17.61
2019-05-01T15:49:22.031Z,17.51
2019-05-01T15:54:17.740Z,17.27
2019-05-01T15:59:13.506Z,17.32
2019-05-01T16:04:09.350Z,17.32
2019-05-01T16:09:06.395Z,17.47
2019-05-01T16:14:02.483Z,17.51
2019-05-01T16:18:58.363Z,17.49
2019-05-01T16:23:54.209Z,17.38
2019-05-01T16:28:49.983Z,17.40
2019-05-01T16:33:45.836Z,17.41
2019-05-01T16:38:54.836Z,17.44
2019-05-01T16:44:05.944Z,17.40
2019-05-01T16:49:01.907Z,17.21
2019-05-01T16:53:57.979Z,17.15
2019-05-01T16:59:14.134Z,17.14
2019-05-01T17:04:20.524Z,17.10
2019-05-01T17:09:49.733Z,17.03
2019-05-01T17:15:02.812Z,17.00
2019-05-01T17:20:00.269Z,16.94
2019-05-01T17:24:56.765Z,16.83
2019-05-01T17:30:06.523Z,16.78
2019-05-01T17:35:06.674Z,16.67
2019-05-01T17:40:03.540Z,16.63
2019-05-01T17:45:38.891Z,16.44
2019-05-01T17:50:36.151Z,16.25
2019-05-01T18:02:11.773Z,15.92
2019-05-01T18:07:39.826Z,15.53
2019-05-01T18:12:46.907Z,15.28
2019-05-01T18:17:42.723Z,15.07
2019-05-01T18:22:56.494Z,14.92
2019-05-01T18:28:03.710Z,14.75
2019-05-01T18:32:59.623Z,14.62
2019-05-01T18:38:01.040Z,14.36
2019-05-01T18:42:56.805Z,14.09
2019-05-01T18:47:52.753Z,13.68
2019-05-01T18:52:48.569Z,13.63
2019-05-01T18:58:32.659Z,13.65
2019-05-01T19:04:34.635Z,13.52
2019-05-01T19:10:30.385Z,13.24
2019-05-01T19:15:35.784Z,13.18
